sensor_id;sensor_type;location;lat;lon;timestamp;pressure;altitude;pressure_sealevel;temperature;humidity
24390;BME280;12510;56.468;-3.004;2023-02-15T00:01:28;101024.78;;;14.89;61.34
24390;BME280;12510;56.468;-3.004;2023-02-15T00:03:54;101013.78;;;15.02;60.72
24390;BME280;12510;56.468;-3.004;2023-02-15T00:06:21;101007.94;;;14.98;60.97
24390;BME280;12510;56.468;-3.004;2023-02-15T00:08:48;101008.47;;;15.02;61.68
24390;BME280;12510;56.468;-3.004;2023-02-15T00:11:17;101014.38;;;14.96;63.31
24390;BME280;12510;56.468;-3.004;2023-02-15T00:14:26;101005.38;;;15.15;62.47
24390;BME280;12510;56.468;-3.004;2023-02-15T00:16:52;101014.06;;;15.25;63.30
24390;BME280;12510;56.468;-3.004;2023-02-15T00:19:20;101008.81;;;15.41;63.06
24390;BME280;12510;56.468;-3.004;2023-02-15T00:21:47;100993.66;;;15.68;61.07
24390;BME280;12510;56.468;-3.004;2023-02-15T00:24:16;100991.03;;;15.76;60.14
24390;BME280;12510;56.468;-3.004;2023-02-15T00:26:43;100986.34;;;15.54;60.28
24390;BME280;12510;56.468;-3.004;2023-02-15T00:29:11;100967.06;;;15.52;60.06
24390;BME280;12510;56.468;-3.004;2023-02-15T00:31:38;100962.00;;;15.32;60.32
24390;BME280;12510;56.468;-3.004;2023-02-15T00:34:12;100968.72;;;15.45;60.12
24390;BME280;12510;56.468;-3.004;2023-02-15T00:36:39;100962.91;;;15.92;58.05
24390;BME280;12510;56.468;-3.004;2023-02-15T00:39:07;100971.44;;;15.69;58.07
24390;BME280;12510;56.468;-3.004;2023-02-15T00:41:36;100970.81;;;15.33;62.55
24390;BME280;12510;56.468;-3.004;2023-02-15T00:44:04;100952.63;;;15.89;59.35
24390;BME280;12510;56.468;-3.004;2023-02-15T00:46:31;100948.47;;;15.95;58.75
24390;BME280;12510;56.468;-3.004;2023-02-15T00:48:58;100940.91;;;15.73;58.89
24390;BME280;12510;56.468;-3.004;2023-02-15T00:51:25;100935.25;;;15.60;59.11
24390;BME280;12510;56.468;-3.004;2023-02-15T00:53:51;100929.34;;;15.83;58.83
24390;BME280;12510;56.468;-3.004;2023-02-15T00:56:18;100931.03;;;16.08;58.79
24390;BME280;12510;56.468;-3.004;2023-02-15T00:58:45;100930.66;;;15.28;59.50
24390;BME280;12510;56.468;-3.004;2023-02-15T01:01:14;100920.09;;;15.36;59.13
24390;BME280;12510;56.468;-3.004;2023-02-15T01:03:41;100907.69;;;15.45;59.18
24390;BME280;12510;56.468;-3.004;2023-02-15T01:06:10;100910.34;;;15.53;58.84
24390;BME280;12510;56.468;-3.004;2023-02-15T01:08:37;100917.94;;;15.31;62.19
24390;BME280;12510;56.468;-3.004;2023-02-15T01:11:05;100905.13;;;15.86;57.80
24390;BME280;12510;56.468;-3.004;2023-02-15T01:13:32;100897.66;;;15.98;57.13
24390;BME280;12510;56.468;-3.004;2023-02-15T01:15:59;100895.00;;;15.89;56.97
24390;BME280;12510;56.468;-3.004;2023-02-15T01:18:26;100893.81;;;15.75;56.69
24390;BME280;12510;56.468;-3.004;2023-02-15T01:20:53;100881.50;;;15.58;57.38
24390;BME280;12510;56.468;-3.004;2023-02-15T01:23:20;100873.19;;;15.53;57.51
24390;BME280;12510;56.468;-3.004;2023-02-15T01:25:46;100877.00;;;15.58;56.95
24390;BME280;12510;56.468;-3.004;2023-02-15T01:28:13;100869.78;;;15.18;58.21
24390;BME280;12510;56.468;-3.004;2023-02-15T01:30:39;100864.59;;;15.08;58.36
24390;BME280;12510;56.468;-3.004;2023-02-15T01:33:06;100863.97;;;15.14;58.77
24390;BME280;12510;56.468;-3.004;2023-02-15T01:35:32;100868.38;;;14.97;58.76
24390;BME280;12510;56.468;-3.004;2023-02-15T01:37:59;100860.94;;;15.01;59.00
24390;BME280;12510;56.468;-3.004;2023-02-15T01:40:25;100857.94;;;14.96;59.07
24390;BME280;12510;56.468;-3.004;2023-02-15T01:42:53;100864.00;;;15.22;58.57
24390;BME280;12510;56.468;-3.004;2023-02-15T01:45:26;100856.72;;;15.24;58.05
24390;BME280;12510;56.468;-3.004;2023-02-15T01:48:01;100849.88;;;14.71;59.20
24390;BME280;12510;56.468;-3.004;2023-02-15T01:50:44;100852.00;;;15.02;59.71
24390;BME280;12510;56.468;-3.004;2023-02-15T01:55:59;100833.13;;;15.21;59.99
24390;BME280;12510;56.468;-3.004;2023-02-15T01:58:29;100825.69;;;15.25;59.04
24390;BME280;12510;56.468;-3.004;2023-02-15T02:00:58;100825.91;;;14.89;62.23
24390;BME280;12510;56.468;-3.004;2023-02-15T02:06:17;100812.69;;;14.97;61.88
24390;BME280;12510;56.468;-3.004;2023-02-15T02:08:44;100800.16;;;15.24;60.35
24390;BME280;12510;56.468;-3.004;2023-02-15T02:11:14;100808.13;;;15.32;59.59
24390;BME280;12510;56.468;-3.004;2023-02-15T02:13:42;100798.31;;;15.16;60.50
24390;BME280;12510;56.468;-3.004;2023-02-15T02:16:42;100804.00;;;15.38;61.04
24390;BME280;12510;56.468;-3.004;2023-02-15T02:25:35;100783.94;;;15.76;59.55
24390;BME280;12510;56.468;-3.004;2023-02-15T02:44:44;100751.69;;;15.05;59.72
24390;BME280;12510;56.468;-3.004;2023-02-15T02:49:59;100754.31;;;14.89;59.45
24390;BME280;12510;56.468;-3.004;2023-02-15T02:52:43;100740.53;;;14.77;60.07
24390;BME280;12510;56.468;-3.004;2023-02-15T02:55:59;100738.72;;;14.78;62.32
24390;BME280;12510;56.468;-3.004;2023-02-15T02:58:15;100723.19;;;14.91;59.78
24390;BME280;12510;56.468;-3.004;2023-02-15T03:00:54;100723.16;;;14.83;59.99
24390;BME280;12510;56.468;-3.004;2023-02-15T03:03:27;100715.72;;;14.95;59.34
24390;BME280;12510;56.468;-3.004;2023-02-15T03:05:58;100714.22;;;14.84;59.56
24390;BME280;12510;56.468;-3.004;2023-02-15T03:08:32;100707.53;;;14.63;59.98
24390;BME280;12510;56.468;-3.004;2023-02-15T03:11:01;100713.53;;;14.31;62.73
24390;BME280;12510;56.468;-3.004;2023-02-15T03:13:29;100709.88;;;14.83;60.43
24390;BME280;12510;56.468;-3.004;2023-02-15T03:15:58;100705.97;;;15.28;58.41
24390;BME280;12510;56.468;-3.004;2023-02-15T03:18:48;100692.69;;;14.87;58.96
24390;BME280;12510;56.468;-3.004;2023-02-15T03:21:43;100697.34;;;14.50;61.97
24390;BME280;12510;56.468;-3.004;2023-02-15T03:24:34;100685.38;;;14.89;59.86
24390;BME280;12510;56.468;-3.004;2023-02-15T03:27:04;100688.09;;;14.63;59.48
24390;BME280;12510;56.468;-3.004;2023-02-15T03:29:32;100683.56;;;14.38;60.80
24390;BME280;12510;56.468;-3.004;2023-02-15T03:32:02;100675.59;;;14.30;60.52
24390;BME280;12510;56.468;-3.004;2023-02-15T03:34:30;100679.22;;;14.29;60.48
24390;BME280;12510;56.468;-3.004;2023-02-15T03:39:42;100658.69;;;14.23;60.03
24390;BME280;12510;56.468;-3.004;2023-02-15T03:47:15;100635.34;;;15.11;58.02
24390;BME280;12510;56.468;-3.004;2023-02-15T03:50:10;100636.16;;;14.78;57.80
24390;BME280;12510;56.468;-3.004;2023-02-15T03:52:59;100638.94;;;14.60;61.87
24390;BME280;12510;56.468;-3.004;2023-02-15T03:55:28;100634.03;;;14.82;59.48
24390;BME280;12510;56.468;-3.004;2023-02-15T03:57:55;100629.81;;;14.63;58.56
24390;BME280;12510;56.468;-3.004;2023-02-15T04:00:47;100627.06;;;14.21;58.46
24390;BME280;12510;56.468;-3.004;2023-02-15T04:03:44;100624.63;;;14.36;58.50
24390;BME280;12510;56.468;-3.004;2023-02-15T04:06:12;100625.78;;;14.34;59.87
24390;BME280;12510;56.468;-3.004;2023-02-15T04:08:38;100616.78;;;14.94;57.67
24390;BME280;12510;56.468;-3.004;2023-02-15T04:11:23;100599.22;;;14.85;57.70
24390;BME280;12510;56.468;-3.004;2023-02-15T04:13:49;100592.16;;;14.42;57.88
24390;BME280;12510;56.468;-3.004;2023-02-15T04:16:23;100595.84;;;14.50;57.92
24390;BME280;12510;56.468;-3.004;2023-02-15T04:18:50;100599.13;;;14.35;60.02
24390;BME280;12510;56.468;-3.004;2023-02-15T04:21:35;100589.38;;;14.44;59.40
24390;BME280;12510;56.468;-3.004;2023-02-15T04:24:20;100585.09;;;14.59;58.52
24390;BME280;12510;56.468;-3.004;2023-02-15T04:27:05;100575.78;;;14.47;59.01
24390;BME280;12510;56.468;-3.004;2023-02-15T04:29:32;100568.19;;;14.44;58.82
24390;BME280;12510;56.468;-3.004;2023-02-15T04:32:00;100557.97;;;14.74;57.52
24390;BME280;12510;56.468;-3.004;2023-02-15T04:34:26;100561.75;;;14.55;57.79
24390;BME280;12510;56.468;-3.004;2023-02-15T04:36:53;100549.41;;;14.21;58.69
24390;BME280;12510;56.468;-3.004;2023-02-15T04:39:19;100534.84;;;14.17;59.23
24390;BME280;12510;56.468;-3.004;2023-02-15T04:41:46;100553.72;;;14.22;58.68
24390;BME280;12510;56.468;-3.004;2023-02-15T04:44:13;100544.75;;;14.06;58.60
24390;BME280;12510;56.468;-3.004;2023-02-15T04:46:40;100545.44;;;14.17;58.78
24390;BME280;12510;56.468;-3.004;2023-02-15T04:49:08;100534.50;;;14.12;59.04
24390;BME280;12510;56.468;-3.004;2023-02-15T04:51:34;100529.63;;;14.74;57.23
24390;BME280;12510;56.468;-3.004;2023-02-15T04:54:01;100525.16;;;14.75;58.92
24390;BME280;12510;56.468;-3.004;2023-02-15T04:56:27;100514.72;;;14.82;58.47
24390;BME280;12510;56.468;-3.004;2023-02-15T04:58:56;100505.06;;;15.05;57.39
24390;BME280;12510;56.468;-3.004;2023-02-15T05:01:22;100494.16;;;14.92;56.85
24390;BME280;12510;56.468;-3.004;2023-02-15T05:03:48;100496.94;;;15.15;55.82
24390;BME280;12510;56.468;-3.004;2023-02-15T05:06:15;100499.78;;;14.97;56.69
24390;BME280;12510;56.468;-3.004;2023-02-15T05:08:41;100491.88;;;14.72;57.46
24390;BME280;12510;56.468;-3.004;2023-02-15T05:11:07;100493.34;;;14.75;57.55
24390;BME280;12510;56.468;-3.004;2023-02-15T05:13:34;100483.81;;;15.22;57.24
24390;BME280;12510;56.468;-3.004;2023-02-15T05:16:00;100476.78;;;15.37;55.84
24390;BME280;12510;56.468;-3.004;2023-02-15T05:18:27;100478.66;;;15.29;57.07
24390;BME280;12510;56.468;-3.004;2023-02-15T05:20:53;100475.88;;;15.22;57.55
24390;BME280;12510;56.468;-3.004;2023-02-15T05:23:20;100468.50;;;15.40;56.79
24390;BME280;12510;56.468;-3.004;2023-02-15T05:25:47;100465.03;;;14.75;57.80
24390;BME280;12510;56.468;-3.004;2023-02-15T05:28:32;100453.03;;;14.96;58.37
24390;BME280;12510;56.468;-3.004;2023-02-15T05:31:13;100450.63;;;14.70;58.23
24390;BME280;12510;56.468;-3.004;2023-02-15T05:33:41;100439.19;;;14.78;57.57
24390;BME280;12510;56.468;-3.004;2023-02-15T05:36:07;100442.50;;;14.55;58.69
24390;BME280;12510;56.468;-3.004;2023-02-15T05:38:34;100436.22;;;14.64;58.79
24390;BME280;12510;56.468;-3.004;2023-02-15T05:41:04;100433.03;;;14.61;59.12
24390;BME280;12510;56.468;-3.004;2023-02-15T05:43:31;100436.50;;;14.61;59.05
24390;BME280;12510;56.468;-3.004;2023-02-15T05:45:57;100426.25;;;14.66;58.51
24390;BME280;12510;56.468;-3.004;2023-02-15T05:48:25;100431.38;;;14.59;58.40
24390;BME280;12510;56.468;-3.004;2023-02-15T05:53:30;100412.03;;;14.51;58.55
24390;BME280;12510;56.468;-3.004;2023-02-15T05:55:57;100401.75;;;14.39;59.33
24390;BME280;12510;56.468;-3.004;2023-02-15T05:58:30;100396.94;;;14.51;58.67
24390;BME280;12510;56.468;-3.004;2023-02-15T06:00:57;100391.31;;;14.54;58.91
24390;BME280;12510;56.468;-3.004;2023-02-15T06:03:24;100385.53;;;14.51;58.64
24390;BME280;12510;56.468;-3.004;2023-02-15T06:05:52;100385.19;;;14.29;60.17
24390;BME280;12510;56.468;-3.004;2023-02-15T06:08:18;100368.97;;;14.49;58.85
24390;BME280;12510;56.468;-3.004;2023-02-15T06:10:46;100371.81;;;14.39;58.10
24390;BME280;12510;56.468;-3.004;2023-02-15T06:13:12;100362.34;;;14.45;58.29
24390;BME280;12510;56.468;-3.004;2023-02-15T06:15:39;100364.53;;;14.24;58.23
24390;BME280;12510;56.468;-3.004;2023-02-15T06:18:05;100361.72;;;14.26;58.71
24390;BME280;12510;56.468;-3.004;2023-02-15T06:20:31;100353.28;;;14.31;57.77
24390;BME280;12510;56.468;-3.004;2023-02-15T06:22:58;100342.84;;;14.21;57.55
24390;BME280;12510;56.468;-3.004;2023-02-15T06:25:25;100330.44;;;14.21;57.74
24390;BME280;12510;56.468;-3.004;2023-02-15T06:27:51;100331.28;;;14.05;58.61
24390;BME280;12510;56.468;-3.004;2023-02-15T06:30:17;100309.72;;;14.25;58.02
24390;BME280;12510;56.468;-3.004;2023-02-15T06:32:44;100313.53;;;14.31;57.32
24390;BME280;12510;56.468;-3.004;2023-02-15T06:35:10;100297.13;;;14.35;57.35
24390;BME280;12510;56.468;-3.004;2023-02-15T06:37:38;100300.63;;;14.28;57.66
24390;BME280;12510;56.468;-3.004;2023-02-15T06:40:06;100293.16;;;14.31;57.66
24390;BME280;12510;56.468;-3.004;2023-02-15T06:42:32;100295.84;;;14.23;58.86
24390;BME280;12510;56.468;-3.004;2023-02-15T06:44:59;100283.56;;;14.30;58.65
24390;BME280;12510;56.468;-3.004;2023-02-15T06:47:26;100285.19;;;14.39;57.69
24390;BME280;12510;56.468;-3.004;2023-02-15T06:49:52;100299.44;;;14.47;57.33
24390;BME280;12510;56.468;-3.004;2023-02-15T06:52:19;100309.16;;;14.54;57.23
24390;BME280;12510;56.468;-3.004;2023-02-15T06:54:45;100314.69;;;14.36;60.15
24390;BME280;12510;56.468;-3.004;2023-02-15T06:57:11;100307.00;;;14.58;58.89
24390;BME280;12510;56.468;-3.004;2023-02-15T06:59:38;100317.44;;;14.68;58.48
24390;BME280;12510;56.468;-3.004;2023-02-15T07:02:04;100297.88;;;14.69;59.96
24390;BME280;12510;56.468;-3.004;2023-02-15T07:04:31;100295.41;;;14.67;60.56
24390;BME280;12510;56.468;-3.004;2023-02-15T07:06:57;100289.53;;;14.88;59.59
24390;BME280;12510;56.468;-3.004;2023-02-15T07:09:24;100290.88;;;14.84;59.98
24390;BME280;12510;56.468;-3.004;2023-02-15T07:11:50;100274.97;;;14.84;59.68
24390;BME280;12510;56.468;-3.004;2023-02-15T07:14:35;100262.97;;;14.97;60.17
24390;BME280;12510;56.468;-3.004;2023-02-15T07:17:02;100266.63;;;14.64;62.20
24390;BME280;12510;56.468;-3.004;2023-02-15T07:19:28;100264.69;;;15.59;59.85
24390;BME280;12510;56.468;-3.004;2023-02-15T07:21:55;100270.53;;;15.08;61.21
24390;BME280;12510;56.468;-3.004;2023-02-15T07:24:21;100268.78;;;15.23;62.81
24390;BME280;12510;56.468;-3.004;2023-02-15T07:26:48;100248.91;;;15.89;59.30
24390;BME280;12510;56.468;-3.004;2023-02-15T07:29:14;100247.13;;;15.81;59.32
24390;BME280;12510;56.468;-3.004;2023-02-15T07:31:41;100257.81;;;15.03;61.33
24390;BME280;12510;56.468;-3.004;2023-02-15T07:34:11;100250.97;;;15.09;62.33
24390;BME280;12510;56.468;-3.004;2023-02-15T07:36:37;100252.88;;;15.23;62.97
24390;BME280;12510;56.468;-3.004;2023-02-15T07:39:04;100262.38;;;15.18;63.68
24390;BME280;12510;56.468;-3.004;2023-02-15T07:41:30;100250.44;;;15.60;61.79
24390;BME280;12510;56.468;-3.004;2023-02-15T07:43:57;100258.41;;;15.60;62.07
24390;BME280;12510;56.468;-3.004;2023-02-15T07:46:23;100234.22;;;15.55;62.19
24390;BME280;12510;56.468;-3.004;2023-02-15T07:48:49;100238.00;;;15.61;62.93
24390;BME280;12510;56.468;-3.004;2023-02-15T07:51:16;100234.69;;;15.58;63.51
24390;BME280;12510;56.468;-3.004;2023-02-15T07:53:42;100246.88;;;16.06;62.71
24390;BME280;12510;56.468;-3.004;2023-02-15T07:56:11;100246.34;;;16.25;62.04
24390;BME280;12510;56.468;-3.004;2023-02-15T07:58:38;100243.88;;;16.24;62.03
24390;BME280;12510;56.468;-3.004;2023-02-15T08:01:27;100248.44;;;16.00;62.73
24390;BME280;12510;56.468;-3.004;2023-02-15T08:03:55;100246.44;;;16.02;62.71
24390;BME280;12510;56.468;-3.004;2023-02-15T08:06:24;100238.09;;;16.05;63.05
24390;BME280;12510;56.468;-3.004;2023-02-15T08:08:51;100226.94;;;16.10;63.02
24390;BME280;12510;56.468;-3.004;2023-02-15T08:11:28;100223.72;;;15.85;63.13
24390;BME280;12510;56.468;-3.004;2023-02-15T08:19:25;100223.91;;;15.98;63.89
24390;BME280;12510;56.468;-3.004;2023-02-15T08:21:54;100225.81;;;16.04;63.23
24390;BME280;12510;56.468;-3.004;2023-02-15T08:24:24;100212.50;;;15.74;64.38
24390;BME280;12510;56.468;-3.004;2023-02-15T08:26:52;100223.91;;;15.75;63.40
24390;BME280;12510;56.468;-3.004;2023-02-15T08:29:21;100226.47;;;15.68;65.63
24390;BME280;12510;56.468;-3.004;2023-02-15T08:31:56;100218.09;;;15.56;66.10
24390;BME280;12510;56.468;-3.004;2023-02-15T08:34:29;100206.88;;;16.07;65.12
24390;BME280;12510;56.468;-3.004;2023-02-15T08:36:57;100211.69;;;15.74;64.89
24390;BME280;12510;56.468;-3.004;2023-02-15T08:39:23;100200.19;;;16.27;66.44
24390;BME280;12510;56.468;-3.004;2023-02-15T08:41:50;100200.16;;;16.56;62.89
24390;BME280;12510;56.468;-3.004;2023-02-15T08:44:18;100200.81;;;17.17;65.41
24390;BME280;12510;56.468;-3.004;2023-02-15T08:46:45;100192.66;;;17.18;63.07
24390;BME280;12510;56.468;-3.004;2023-02-15T08:49:15;100195.09;;;17.20;63.78
24390;BME280;12510;56.468;-3.004;2023-02-15T08:51:42;100188.03;;;17.05;63.30
24390;BME280;12510;56.468;-3.004;2023-02-15T08:54:15;100197.56;;;17.00;62.96
24390;BME280;12510;56.468;-3.004;2023-02-15T08:56:43;100196.75;;;16.63;61.64
24390;BME280;12510;56.468;-3.004;2023-02-15T08:59:18;100201.56;;;17.82;64.85
24390;BME280;12510;56.468;-3.004;2023-02-15T09:01:47;100195.78;;;18.07;62.45
24390;BME280;12510;56.468;-3.004;2023-02-15T09:04:13;100205.00;;;18.39;62.43
24390;BME280;12510;56.468;-3.004;2023-02-15T09:06:43;100190.94;;;18.17;59.76
24390;BME280;12510;56.468;-3.004;2023-02-15T09:09:11;100188.19;;;19.01;55.49
24390;BME280;12510;56.468;-3.004;2023-02-15T09:11:43;100200.13;;;19.45;58.15
24390;BME280;12510;56.468;-3.004;2023-02-15T09:14:14;100190.22;;;18.99;57.08
24390;BME280;12510;56.468;-3.004;2023-02-15T09:16:44;100185.94;;;19.45;56.06
24390;BME280;12510;56.468;-3.004;2023-02-15T09:19:12;100178.09;;;18.34;54.68
24390;BME280;12510;56.468;-3.004;2023-02-15T09:21:39;100177.97;;;18.56;55.52
24390;BME280;12510;56.468;-3.004;2023-02-15T09:24:08;100178.94;;;17.71;57.39
24390;BME280;12510;56.468;-3.004;2023-02-15T09:26:37;100181.94;;;17.90;56.87
24390;BME280;12510;56.468;-3.004;2023-02-15T09:29:07;100181.56;;;17.36;60.09
24390;BME280;12510;56.468;-3.004;2023-02-15T09:31:38;100171.81;;;18.07;58.75
24390;BME280;12510;56.468;-3.004;2023-02-15T09:34:04;100173.56;;;17.36;60.56
24390;BME280;12510;56.468;-3.004;2023-02-15T09:36:36;100166.00;;;16.75;61.18
24390;BME280;12510;56.468;-3.004;2023-02-15T09:39:13;100164.53;;;17.31;62.19
24390;BME280;12510;56.468;-3.004;2023-02-15T09:52:55;100151.75;;;17.83;62.60
24390;BME280;12510;56.468;-3.004;2023-02-15T10:06:38;100136.66;;;19.34;57.93
24390;BME280;12510;56.468;-3.004;2023-02-15T10:17:29;100166.81;;;18.32;64.88
24390;BME280;12510;56.468;-3.004;2023-02-15T10:20:28;100164.22;;;18.59;64.64
24390;BME280;12510;56.468;-3.004;2023-02-15T10:26:07;100171.09;;;17.91;70.27
24390;BME280;12510;56.468;-3.004;2023-02-15T10:28:51;100177.50;;;17.69;72.79
24390;BME280;12510;56.468;-3.004;2023-02-15T10:31:28;100177.13;;;18.49;70.11
24390;BME280;12510;56.468;-3.004;2023-02-15T10:34:38;100176.50;;;18.47;68.76
24390;BME280;12510;56.468;-3.004;2023-02-15T10:40:08;100165.94;;;18.87;68.82
24390;BME280;12510;56.468;-3.004;2023-02-15T10:48:10;100157.91;;;20.07;65.68
24390;BME280;12510;56.468;-3.004;2023-02-15T10:50:54;100154.53;;;19.40;67.28
24390;BME280;12510;56.468;-3.004;2023-02-15T10:56:18;100159.81;;;19.93;64.88
24390;BME280;12510;56.468;-3.004;2023-02-15T11:01:55;100146.91;;;19.43;67.47
24390;BME280;12510;56.468;-3.004;2023-02-15T11:09:56;100149.41;;;19.52;69.64
24390;BME280;12510;56.468;-3.004;2023-02-15T11:12:28;100159.03;;;19.46;69.54
24390;BME280;12510;56.468;-3.004;2023-02-15T11:15:04;100161.53;;;19.21;71.92
24390;BME280;12510;56.468;-3.004;2023-02-15T11:17:45;100166.41;;;19.77;67.99
24390;BME280;12510;56.468;-3.004;2023-02-15T11:20:35;100163.34;;;19.60;69.93
24390;BME280;12510;56.468;-3.004;2023-02-15T11:23:12;100175.25;;;19.11;72.23
24390;BME280;12510;56.468;-3.004;2023-02-15T11:25:44;100162.72;;;19.79;68.94
24390;BME280;12510;56.468;-3.004;2023-02-15T11:28:19;100170.75;;;19.05;70.87
24390;BME280;12510;56.468;-3.004;2023-02-15T11:30:51;100172.13;;;18.87;74.39
24390;BME280;12510;56.468;-3.004;2023-02-15T11:33:30;100174.22;;;18.92;72.32
24390;BME280;12510;56.468;-3.004;2023-02-15T11:36:06;100177.53;;;19.61;72.56
24390;BME280;12510;56.468;-3.004;2023-02-15T11:38:34;100168.03;;;19.99;69.88
24390;BME280;12510;56.468;-3.004;2023-02-15T11:41:07;100164.59;;;19.31;71.08
24390;BME280;12510;56.468;-3.004;2023-02-15T11:46:11;100165.78;;;19.89;72.64
24390;BME280;12510;56.468;-3.004;2023-02-15T11:48:39;100174.34;;;20.18;71.63
24390;BME280;12510;56.468;-3.004;2023-02-15T11:51:05;100158.81;;;20.40;69.35
24390;BME280;12510;56.468;-3.004;2023-02-15T11:53:37;100160.16;;;20.17;68.84
24390;BME280;12510;56.468;-3.004;2023-02-15T11:56:04;100168.84;;;20.06;69.86
24390;BME280;12510;56.468;-3.004;2023-02-15T12:01:30;100168.88;;;19.79;74.51
24390;BME280;12510;56.468;-3.004;2023-02-15T12:06:48;100160.97;;;20.70;71.66
24390;BME280;12510;56.468;-3.004;2023-02-15T12:09:28;100162.56;;;21.09;68.57
24390;BME280;12510;56.468;-3.004;2023-02-15T12:14:51;100151.16;;;20.50;69.34
24390;BME280;12510;56.468;-3.004;2023-02-15T12:17:20;100150.00;;;19.34;73.41
24390;BME280;12510;56.468;-3.004;2023-02-15T12:19:47;100148.72;;;19.76;72.69
24390;BME280;12510;56.468;-3.004;2023-02-15T12:22:30;100147.53;;;19.59;71.66
24390;BME280;12510;56.468;-3.004;2023-02-15T12:25:00;100154.28;;;19.75;72.07
24390;BME280;12510;56.468;-3.004;2023-02-15T12:27:30;100159.69;;;20.34;68.18
24390;BME280;12510;56.468;-3.004;2023-02-15T12:30:20;100163.13;;;19.55;72.22
24390;BME280;12510;56.468;-3.004;2023-02-15T12:33:25;100145.28;;;19.02;71.01
24390;BME280;12510;56.468;-3.004;2023-02-15T12:35:42;100149.41;;;18.98;70.99
24390;BME280;12510;56.468;-3.004;2023-02-15T12:40:37;100153.91;;;19.18;67.13
24390;BME280;12510;56.468;-3.004;2023-02-15T12:43:04;100131.53;;;19.19;62.95
24390;BME280;12510;56.468;-3.004;2023-02-15T12:45:36;100126.72;;;18.54;64.64
24390;BME280;12510;56.468;-3.004;2023-02-15T12:50:40;100134.78;;;18.87;64.15
24390;BME280;12510;56.468;-3.004;2023-02-15T12:53:16;100132.22;;;18.52;64.54
24390;BME280;12510;56.468;-3.004;2023-02-15T12:58:23;100131.94;;;18.27;64.61
24390;BME280;12510;56.468;-3.004;2023-02-15T13:03:30;100124.53;;;19.04;61.62
24390;BME280;12510;56.468;-3.004;2023-02-15T13:05:57;100116.50;;;19.58;60.35
24390;BME280;12510;56.468;-3.004;2023-02-15T13:08:30;100125.97;;;18.93;61.27
24390;BME280;12510;56.468;-3.004;2023-02-15T13:11:05;100122.84;;;19.70;59.59
24390;BME280;12510;56.468;-3.004;2023-02-15T13:13:34;100125.97;;;19.34;61.07
24390;BME280;12510;56.468;-3.004;2023-02-15T13:16:07;100125.56;;;19.37;61.03
24390;BME280;12510;56.468;-3.004;2023-02-15T13:18:46;100135.22;;;19.24;62.20
24390;BME280;12510;56.468;-3.004;2023-02-15T13:21:21;100141.13;;;18.80;61.96
24390;BME280;12510;56.468;-3.004;2023-02-15T13:24:02;100127.84;;;19.40;59.82
24390;BME280;12510;56.468;-3.004;2023-02-15T13:26:32;100145.69;;;19.39;60.69
24390;BME280;12510;56.468;-3.004;2023-02-15T13:29:14;100144.38;;;18.68;61.90
24390;BME280;12510;56.468;-3.004;2023-02-15T13:31:42;100150.06;;;18.45;63.22
24390;BME280;12510;56.468;-3.004;2023-02-15T13:34:14;100152.69;;;19.27;60.41
24390;BME280;12510;56.468;-3.004;2023-02-15T13:37:04;100145.69;;;19.13;59.96
24390;BME280;12510;56.468;-3.004;2023-02-15T13:42:37;100156.38;;;19.13;60.85
24390;BME280;12510;56.468;-3.004;2023-02-15T13:45:23;100159.94;;;18.51;62.78
24390;BME280;12510;56.468;-3.004;2023-02-15T13:50:57;100157.59;;;19.17;59.27
24390;BME280;12510;56.468;-3.004;2023-02-15T13:56:02;100148.53;;;20.43;57.36
24390;BME280;12510;56.468;-3.004;2023-02-15T14:01:50;100147.09;;;19.69;60.39
24390;BME280;12510;56.468;-3.004;2023-02-15T14:04:30;100153.28;;;19.02;61.21
24390;BME280;12510;56.468;-3.004;2023-02-15T14:20:44;100158.69;;;20.67;57.50
24390;BME280;12510;56.468;-3.004;2023-02-15T14:23:52;100145.84;;;21.14;57.20
24390;BME280;12510;56.468;-3.004;2023-02-15T14:26:50;100142.81;;;20.33;58.04
24390;BME280;12510;56.468;-3.004;2023-02-15T14:29:47;100159.47;;;19.36;62.00
24390;BME280;12510;56.468;-3.004;2023-02-15T14:34:54;100153.88;;;19.85;60.80
24390;BME280;12510;56.468;-3.004;2023-02-15T14:37:46;100153.44;;;20.01;59.19
24390;BME280;12510;56.468;-3.004;2023-02-15T15:02:20;100144.72;;;20.65;54.57
24390;BME280;12510;56.468;-3.004;2023-02-15T15:04:59;100146.56;;;20.64;55.51
24390;BME280;12510;56.468;-3.004;2023-02-15T15:07:35;100146.91;;;19.57;58.99
24390;BME280;12510;56.468;-3.004;2023-02-15T15:10:23;100139.22;;;20.53;57.31
24390;BME280;12510;56.468;-3.004;2023-02-15T15:12:56;100133.22;;;20.96;55.91
24390;BME280;12510;56.468;-3.004;2023-02-15T15:23:41;100126.38;;;21.00;53.85
24390;BME280;12510;56.468;-3.004;2023-02-15T15:26:29;100129.19;;;21.12;54.53
24390;BME280;12510;56.468;-3.004;2023-02-15T15:28:59;100127.56;;;21.11;54.57
24390;BME280;12510;56.468;-3.004;2023-02-15T15:32:01;100127.81;;;20.64;54.91
24390;BME280;12510;56.468;-3.004;2023-02-15T15:37:33;100123.34;;;20.58;55.55
24390;BME280;12510;56.468;-3.004;2023-02-15T15:48:52;100128.63;;;20.33;55.98
24390;BME280;12510;56.468;-3.004;2023-02-15T15:51:25;100123.63;;;20.50;54.27
24390;BME280;12510;56.468;-3.004;2023-02-15T15:53:53;100125.06;;;20.00;55.51
24390;BME280;12510;56.468;-3.004;2023-02-15T15:56:27;100128.16;;;19.90;55.94
24390;BME280;12510;56.468;-3.004;2023-02-15T15:58:59;100125.66;;;20.02;55.92
24390;BME280;12510;56.468;-3.004;2023-02-15T16:01:29;100124.03;;;20.01;55.68
24390;BME280;12510;56.468;-3.004;2023-02-15T16:03:58;100118.31;;;19.77;56.51
24390;BME280;12510;56.468;-3.004;2023-02-15T16:06:38;100122.09;;;19.16;58.01
24390;BME280;12510;56.468;-3.004;2023-02-15T16:09:23;100138.63;;;18.65;58.12
24390;BME280;12510;56.468;-3.004;2023-02-15T16:11:56;100139.91;;;19.83;57.27
24390;BME280;12510;56.468;-3.004;2023-02-15T16:14:38;100131.09;;;19.49;57.27
24390;BME280;12510;56.468;-3.004;2023-02-15T16:17:07;100148.13;;;19.95;56.41